Time;durP1;ratioP1;P1;durP2;ratioP2;P2;SDS_P1;SDS_P2;PMS_P1;PMS_P2;Temp;Humidity;BMP_temperature;BMP_pressure;BME280_temperature;BME280_humidity;BME280_pressure;Samples;Min_cycle;Max_cycle;Signal;HPM_P1;HPM_P2
2021/11/23 00:02:16;;;;;;;4.80;4.40;;;7.90;55.20;;;;;;5027250;28;20205;-45
2021/11/23 00:04:42;;;;;;;4.60;4.20;;;8.00;54.80;;;;;;5023936;28;20276;-46
2021/11/23 00:07:07;;;;;;;5.87;5.37;;;8.10;54.50;;;;;;5026379;28;20193;-45
2021/11/23 00:09:33;;;;;;;8.20;6.10;;;7.90;54.10;;;;;;5028130;28;20243;-45
2021/11/23 00:11:59;;;;;;;4.37;4.03;;;7.90;54.40;;;;;;5026383;28;20193;-45
2021/11/23 00:14:24;;;;;;;5.17;4.67;;;7.60;54.70;;;;;;5028191;28;20224;-45
2021/11/23 00:16:50;;;;;;;5.87;5.27;;;7.50;55.40;;;;;;5026391;28;20193;-45
2021/11/23 00:19:15;;;;;;;4.70;4.30;;;7.40;55.50;;;;;;5026840;28;20228;-47
2021/11/23 00:21:41;;;;;;;4.67;4.27;;;7.10;56.10;;;;;;5029454;28;20228;-49
2021/11/23 00:24:10;;;;;;;4.50;3.60;;;6.70;56.60;;;;;;5030310;28;20720;-47
2021/11/23 00:26:36;;;;;;;4.60;4.20;;;6.70;57.00;;;;;;5025770;28;20198;-49
2021/11/23 00:29:01;;;;;;;5.80;5.20;;;6.90;57.20;;;;;;5030682;28;20443;-48
2021/11/23 00:31:27;;;;;;;6.53;4.60;;;7.20;56.80;;;;;;5028451;28;20273;-49
2021/11/23 00:33:53;;;;;;;5.00;4.50;;;7.50;55.90;;;;;;5030616;28;20476;-49
2021/11/23 00:36:19;;;;;;;5.50;5.00;;;7.70;55.20;;;;;;5029722;28;20220;-50
2021/11/23 00:38:45;;;;;;;5.27;4.77;;;7.90;54.70;;;;;;5030423;28;20560;-49
2021/11/23 00:41:14;;;;;;;5.00;4.50;;;8.00;54.30;;;;;;5028379;28;20201;-50
2021/11/23 00:43:40;;;;;;;5.83;5.07;;;8.10;54.10;;;;;;5026238;28;21006;-46
2021/11/23 00:46:06;;;;;;;5.33;4.83;;;8.20;54.00;;;;;;5026901;28;20574;-46
2021/11/23 00:48:32;;;;;;;5.57;5.07;;;8.30;54.10;;;;;;5027651;28;20449;-48
2021/11/23 00:50:58;;;;;;;5.50;5.10;;;8.30;54.20;;;;;;5030293;28;20522;-47
2021/11/23 00:53:24;;;;;;;5.97;5.47;;;8.30;54.10;;;;;;5030208;28;20213;-50
2021/11/23 00:55:50;;;;;;;5.40;5.00;;;8.40;53.90;;;;;;5028693;28;20259;-48
2021/11/23 00:58:16;;;;;;;6.40;5.17;;;8.40;53.60;;;;;;5027227;28;20439;-48
2021/11/23 01:00:42;;;;;;;5.63;5.03;;;8.50;53.80;;;;;;5025446;28;20568;-49
2021/11/23 01:03:07;;;;;;;4.93;4.23;;;8.50;53.80;;;;;;5029107;28;20224;-47
2021/11/23 01:05:33;;;;;;;5.80;5.30;;;8.50;53.80;;;;;;5028528;28;20498;-50
2021/11/23 01:07:59;;;;;;;5.37;4.87;;;8.50;53.60;;;;;;5025045;28;20201;-49
2021/11/23 01:10:25;;;;;;;5.40;4.97;;;8.50;53.50;;;;;;5022438;28;20444;-49
2021/11/23 01:12:51;;;;;;;4.90;4.50;;;8.50;53.80;;;;;;5021422;28;20795;-47
2021/11/23 01:15:16;;;;;;;5.10;4.70;;;8.50;53.80;;;;;;5025706;28;20247;-50
2021/11/23 01:17:42;;;;;;;6.83;4.97;;;8.40;53.70;;;;;;5023750;28;20233;-48
2021/11/23 01:20:10;;;;;;;6.03;5.50;;;8.40;53.60;;;;;;5025889;28;20189;-49
2021/11/23 01:22:36;;;;;;;5.10;4.60;;;8.40;53.60;;;;;;5031093;28;20476;-47
2021/11/23 01:25:02;;;;;;;6.27;4.77;;;8.40;53.60;;;;;;5028650;28;20432;-48
2021/11/23 01:27:27;;;;;;;7.50;5.70;;;8.40;53.50;;;;;;5029245;28;20485;-48
2021/11/23 01:29:53;;;;;;;5.67;5.10;;;8.30;53.30;;;;;;5027417;28;20869;-49
2021/11/23 01:32:19;;;;;;;6.17;5.67;;;8.30;53.20;;;;;;5030001;28;20224;-48
2021/11/23 01:34:44;;;;;;;4.70;4.30;;;8.20;53.10;;;;;;5026927;28;20193;-45
2021/11/23 01:37:10;;;;;;;5.07;4.60;;;8.00;53.50;;;;;;5028125;28;20265;-49
2021/11/23 01:39:35;;;;;;;5.80;5.30;;;8.00;53.80;;;;;;5030358;28;20725;-49
2021/11/23 01:42:02;;;;;;;7.03;4.63;;;8.00;53.90;;;;;;5029578;28;20265;-49
2021/11/23 01:44:28;;;;;;;5.80;5.30;;;8.10;53.90;;;;;;5027216;28;20197;-47
2021/11/23 01:46:53;;;;;;;5.50;5.00;;;8.10;53.70;;;;;;5026076;28;21014;-45
2021/11/23 01:49:19;;;;;;;5.73;5.17;;;8.00;53.50;;;;;;5022580;28;20197;-47
2021/11/23 01:51:45;;;;;;;6.27;5.10;;;7.90;53.80;;;;;;5025172;28;20193;-51
2021/11/23 01:54:11;;;;;;;7.47;4.90;;;7.90;54.10;;;;;;5028572;28;20667;-47
2021/11/23 01:56:37;;;;;;;5.30;4.80;;;7.90;53.90;;;;;;5028551;28;20271;-46
2021/11/23 01:59:03;;;;;;;4.70;4.30;;;8.00;53.80;;;;;;5028757;28;20448;-48
2021/11/23 02:01:29;;;;;;;4.83;4.43;;;8.00;53.80;;;;;;5025529;28;20256;-48
2021/11/23 02:03:56;;;;;;;5.80;5.30;;;7.90;54.10;;;;;;5022977;28;20584;-48
2021/11/23 02:06:22;;;;;;;5.80;5.27;;;8.00;53.90;;;;;;5023397;28;20200;-48
2021/11/23 02:08:48;;;;;;;5.07;4.60;;;8.00;53.80;;;;;;5029315;28;20443;-50
2021/11/23 02:11:13;;;;;;;5.23;4.80;;;8.00;54.00;;;;;;5024522;28;20813;-50
2021/11/23 02:13:41;;;;;;;5.57;5.07;;;8.00;53.80;;;;;;5026793;28;20197;-45
2021/11/23 02:16:07;;;;;;;5.07;4.57;;;8.00;53.60;;;;;;5028030;28;20633;-45
2021/11/23 02:18:33;;;;;;;6.43;5.90;;;8.00;53.80;;;;;;5029157;28;20471;-46
2021/11/23 02:20:58;;;;;;;5.77;5.17;;;7.90;53.80;;;;;;5024198;28;20888;-47
2021/11/23 02:23:25;;;;;;;5.53;5.03;;;7.90;54.10;;;;;;5023693;28;20488;-46
2021/11/23 02:25:51;;;;;;;5.40;5.00;;;7.90;54.10;;;;;;5024153;28;20193;-49
2021/11/23 02:28:17;;;;;;;5.33;4.93;;;7.90;53.80;;;;;;5029603;28;20852;-45
2021/11/23 02:30:52;;;;;;;5.93;5.33;;;7.90;53.70;;;;;;5026833;28;20447;-49
2021/11/23 02:33:20;;;;;;;5.10;4.70;;;7.80;53.60;;;;;;5026957;28;20954;-46
2021/11/23 02:35:47;;;;;;;5.20;4.70;;;7.80;53.80;;;;;;5026113;28;20508;-45
2021/11/23 02:38:14;;;;;;;5.27;4.87;;;7.80;53.80;;;;;;5028280;28;20455;-49
2021/11/23 02:40:39;;;;;;;6.70;6.10;;;7.70;53.50;;;;;;5021853;28;20440;-49
2021/11/23 02:43:05;;;;;;;5.50;5.00;;;7.80;53.40;;;;;;5022181;28;20491;-47
2021/11/23 02:45:31;;;;;;;5.83;5.23;;;7.80;53.30;;;;;;5027600;28;20584;-46
2021/11/23 02:47:59;;;;;;;5.93;5.43;;;7.80;53.40;;;;;;5029067;28;20440;-47
2021/11/23 02:50:26;;;;;;;5.93;4.90;;;7.80;53.40;;;;;;5029421;28;20201;-47
2021/11/23 02:52:52;;;;;;;5.23;4.73;;;7.70;53.50;;;;;;5026978;28;20469;-48
2021/11/23 02:55:20;;;;;;;5.73;5.20;;;7.70;53.80;;;;;;5029109;28;20443;-48
2021/11/23 02:57:45;;;;;;;5.73;5.23;;;7.70;53.80;;;;;;5026939;28;20982;-45
2021/11/23 03:00:16;;;;;;;5.37;4.87;;;7.70;53.70;;;;;;5027996;28;20440;-45
2021/11/23 03:02:46;;;;;;;5.57;5.07;;;7.70;53.50;;;;;;5026082;28;20274;-49
2021/11/23 03:05:12;;;;;;;5.17;4.67;;;7.60;53.20;;;;;;5027230;28;20463;-49
2021/11/23 03:07:39;;;;;;;8.33;5.10;;;7.60;53.50;;;;;;5026948;28;20448;-46
2021/11/23 03:10:08;;;;;;;5.80;5.20;;;7.60;53.60;;;;;;5023806;28;20452;-45
2021/11/23 03:12:35;;;;;;;5.67;5.17;;;7.60;53.80;;;;;;5027802;28;20439;-46
2021/11/23 03:15:01;;;;;;;5.50;5.03;;;7.50;53.60;;;;;;5029326;28;20518;-45
2021/11/23 03:17:27;;;;;;;5.33;4.93;;;7.50;53.80;;;;;;5025529;28;20475;-49
2021/11/23 03:19:53;;;;;;;6.60;6.00;;;7.50;53.80;;;;;;5028069;28;20493;-49
2021/11/23 03:22:19;;;;;;;5.70;5.20;;;7.50;54.00;;;;;;5030705;28;20572;-48
2021/11/23 03:24:46;;;;;;;5.70;5.10;;;7.40;54.00;;;;;;5032709;28;20200;-46
2021/11/23 03:27:12;;;;;;;5.50;5.00;;;7.50;53.90;;;;;;5028333;28;20874;-49
2021/11/23 03:29:39;;;;;;;4.77;4.30;;;7.40;54.10;;;;;;5029048;28;20809;-49
2021/11/23 03:32:08;;;;;;;4.97;4.57;;;7.40;54.30;;;;;;5030596;28;20859;-47
2021/11/23 03:34:37;;;;;;;5.60;5.10;;;7.40;54.00;;;;;;5031029;28;20459;-49
2021/11/23 03:37:09;;;;;;;4.77;4.37;;;7.40;53.80;;;;;;5030254;28;20979;-47
2021/11/23 03:39:36;;;;;;;5.83;5.30;;;7.40;53.70;;;;;;5031631;28;20519;-46
2021/11/23 03:42:02;;;;;;;6.03;5.53;;;7.30;53.80;;;;;;5033086;28;20529;-48
2021/11/23 03:44:28;;;;;;;5.27;4.77;;;7.20;53.90;;;;;;5029843;28;20953;-48
2021/11/23 03:46:54;;;;;;;5.60;5.07;;;7.20;54.00;;;;;;5030329;28;20441;-45
2021/11/23 03:49:20;;;;;;;5.50;5.00;;;7.20;54.00;;;;;;5031645;28;20196;-49
2021/11/23 03:51:45;;;;;;;7.40;5.60;;;7.10;54.30;;;;;;5031019;28;20201;-52
2021/11/23 03:54:11;;;;;;;6.30;4.67;;;7.10;54.30;;;;;;5031629;28;20215;-46
2021/11/23 03:56:39;;;;;;;5.83;5.33;;;7.10;54.40;;;;;;5028772;28;20200;-46
2021/11/23 03:59:04;;;;;;;6.27;5.67;;;7.10;54.30;;;;;;5031246;28;20251;-50
2021/11/23 04:01:30;;;;;;;6.10;5.50;;;7.00;54.20;;;;;;5030719;28;20493;-46
2021/11/23 04:03:55;;;;;;;6.67;6.07;;;7.00;54.30;;;;;;5029933;28;20366;-45
2021/11/23 04:06:21;;;;;;;7.47;6.70;;;7.00;54.40;;;;;;5029529;28;20194;-46
2021/11/23 04:08:47;;;;;;;7.40;6.70;;;7.00;54.30;;;;;;5030417;28;20193;-46
2021/11/23 04:11:12;;;;;;;6.67;6.00;;;7.00;54.40;;;;;;5031383;28;20572;-47
2021/11/23 04:13:40;;;;;;;7.40;6.70;;;7.00;54.40;;;;;;5030117;28;20193;-45
2021/11/23 04:16:06;;;;;;;9.13;6.00;;;6.90;54.20;;;;;;5030178;28;20197;-49
2021/11/23 04:18:32;;;;;;;7.90;6.30;;;6.90;54.20;;;;;;5029313;28;20475;-48
2021/11/23 04:20:57;;;;;;;7.07;6.37;;;6.90;54.20;;;;;;5030412;28;20284;-45
2021/11/23 04:23:23;;;;;;;7.13;6.40;;;6.80;54.20;;;;;;5030615;28;21031;-45
2021/11/23 04:25:49;;;;;;;10.83;6.77;;;6.80;54.40;;;;;;5031649;28;20242;-49
2021/11/23 04:28:14;;;;;;;9.00;6.20;;;6.80;54.50;;;;;;5029926;28;20198;-46
2021/11/23 04:30:40;;;;;;;8.13;6.13;;;6.80;54.30;;;;;;5023647;28;20198;-48
2021/11/23 04:33:05;;;;;;;9.40;5.90;;;6.80;54.30;;;;;;5028124;28;20200;-46
2021/11/23 04:35:32;;;;;;;8.80;7.10;;;6.80;54.40;;;;;;5029719;28;20560;-46
2021/11/23 04:37:58;;;;;;;7.10;5.90;;;6.80;54.40;;;;;;5031393;28;20197;-45
2021/11/23 04:40:23;;;;;;;6.00;5.37;;;6.80;54.40;;;;;;5030362;28;20443;-47
2021/11/23 04:42:49;;;;;;;6.13;5.53;;;6.80;54.30;;;;;;5028673;28;20225;-47
2021/11/23 04:45:15;;;;;;;6.23;5.60;;;6.80;54.40;;;;;;5031037;28;20284;-48
2021/11/23 04:47:41;;;;;;;8.03;6.10;;;6.80;54.30;;;;;;5029059;28;20198;-45
2021/11/23 04:50:09;;;;;;;7.10;5.60;;;6.70;54.10;;;;;;5029317;28;20448;-45
2021/11/23 04:52:35;;;;;;;5.80;5.30;;;6.70;54.20;;;;;;5029239;28;20432;-46
2021/11/23 04:55:02;;;;;;;5.80;5.30;;;6.70;54.40;;;;;;5032189;28;20924;-49
2021/11/23 04:57:27;;;;;;;8.10;5.80;;;6.70;54.40;;;;;;5029408;28;22643;-49
2021/11/23 04:59:53;;;;;;;5.90;5.33;;;6.60;54.30;;;;;;5028576;28;20447;-47
2021/11/23 05:02:19;;;;;;;6.00;5.33;;;6.60;54.30;;;;;;5028910;28;20308;-48
2021/11/23 05:04:46;;;;;;;7.90;5.90;;;6.60;54.30;;;;;;5030800;28;20194;-48
2021/11/23 05:07:12;;;;;;;6.00;5.40;;;6.50;54.20;;;;;;5032040;28;20440;-49
2021/11/23 05:09:37;;;;;;;5.43;4.93;;;6.50;54.10;;;;;;5031958;28;20535;-47
2021/11/23 05:12:04;;;;;;;10.40;5.43;;;6.40;54.10;;;;;;5028805;28;20454;-47
2021/11/23 05:14:29;;;;;;;6.63;5.50;;;6.30;54.10;;;;;;5031192;28;20281;-50
2021/11/23 05:16:55;;;;;;;5.60;5.03;;;6.20;54.60;;;;;;5027348;28;20603;-51
2021/11/23 05:19:20;;;;;;;7.57;5.70;;;6.20;54.60;;;;;;5029540;28;20251;-48
2021/11/23 05:21:46;;;;;;;5.57;5.00;;;6.20;54.50;;;;;;5030680;28;20197;-48
2021/11/23 05:24:13;;;;;;;5.47;4.90;;;6.20;54.60;;;;;;5028727;28;20205;-48
2021/11/23 05:26:39;;;;;;;6.60;6.10;;;6.20;54.50;;;;;;5027455;28;20189;-47
2021/11/23 05:29:05;;;;;;;6.27;5.67;;;6.20;54.60;;;;;;5031269;28;20507;-48
2021/11/23 05:31:31;;;;;;;6.33;5.47;;;6.20;54.70;;;;;;5030982;28;20193;-49
2021/11/23 05:33:57;;;;;;;6.97;6.07;;;6.20;54.80;;;;;;5029705;28;20452;-47
2021/11/23 05:36:23;;;;;;;6.40;5.80;;;6.20;54.80;;;;;;5026685;28;20523;-47
2021/11/23 05:38:49;;;;;;;8.13;5.20;;;6.20;54.60;;;;;;5030243;28;20197;-49
2021/11/23 05:41:14;;;;;;;7.60;5.60;;;6.10;54.40;;;;;;5031115;28;20193;-48
2021/11/23 05:43:40;;;;;;;6.33;5.50;;;6.10;54.30;;;;;;5028867;28;20480;-47
2021/11/23 05:46:06;;;;;;;6.90;6.20;;;6.10;54.40;;;;;;5027175;28;20189;-48
2021/11/23 05:48:31;;;;;;;6.67;6.07;;;6.10;54.40;;;;;;5030704;28;20246;-48
2021/11/23 05:51:03;;;;;;;6.47;5.87;;;6.10;54.30;;;;;;5027126;28;20304;-48
2021/11/23 05:53:30;;;;;;;6.83;5.63;;;6.00;54.40;;;;;;5027524;28;20547;-47
2021/11/23 05:55:56;;;;;;;7.53;6.63;;;6.00;54.60;;;;;;5028821;28;21287;-48
2021/11/23 05:58:21;;;;;;;6.50;5.90;;;6.00;54.50;;;;;;5030560;28;20457;-47
2021/11/23 06:00:47;;;;;;;6.90;6.30;;;6.00;54.50;;;;;;5028104;28;20189;-46
2021/11/23 06:03:12;;;;;;;8.80;6.23;;;6.00;54.40;;;;;;5030069;28;20237;-48
2021/11/23 06:05:38;;;;;;;8.23;6.47;;;6.00;54.40;;;;;;5025618;28;20193;-47
2021/11/23 06:08:04;;;;;;;9.90;7.43;;;5.90;54.40;;;;;;5027572;28;20224;-47
2021/11/23 06:10:29;;;;;;;9.00;6.90;;;5.90;54.40;;;;;;5026298;28;20224;-47
2021/11/23 06:12:55;;;;;;;8.00;6.80;;;5.90;54.40;;;;;;5029971;28;20931;-48
2021/11/23 06:15:21;;;;;;;11.53;7.03;;;5.90;54.50;;;;;;5028854;28;20865;-47
2021/11/23 06:17:49;;;;;;;11.50;5.57;;;5.90;54.40;;;;;;5029824;28;20233;-48
2021/11/23 06:20:15;;;;;;;9.43;6.80;;;6.00;56.60;;;;;;5030203;28;20440;-47
2021/11/23 06:22:41;;;;;;;8.23;6.17;;;6.40;59.80;;;;;;5028987;28;21252;-47
2021/11/23 06:25:08;;;;;;;7.37;6.63;;;6.70;58.40;;;;;;5028398;28;20244;-47
2021/11/23 06:27:36;;;;;;;9.20;6.27;;;6.90;55.60;;;;;;5024236;28;20205;-50
2021/11/23 06:30:04;;;;;;;7.53;6.00;;;7.00;54.00;;;;;;5030218;28;20443;-47
2021/11/23 06:32:29;;;;;;;6.60;5.53;;;7.10;52.60;;;;;;5025388;28;20888;-47
2021/11/23 06:34:55;;;;;;;7.53;6.40;;;7.10;51.80;;;;;;5029381;28;20547;-47
2021/11/23 06:37:20;;;;;;;8.10;6.20;;;7.00;51.30;;;;;;5024130;28;20259;-48
2021/11/23 06:39:46;;;;;;;5.67;5.17;;;6.90;51.20;;;;;;5025740;28;20189;-49
2021/11/23 06:42:12;;;;;;;8.83;5.53;;;6.70;51.50;;;;;;5024339;28;20339;-50
2021/11/23 06:44:37;;;;;;;13.70;7.50;;;6.50;52.00;;;;;;5026789;28;20224;-48
2021/11/23 06:47:03;;;;;;;6.80;5.90;;;6.40;52.30;;;;;;5023669;28;20193;-47
2021/11/23 06:49:29;;;;;;;6.00;5.40;;;6.30;52.30;;;;;;5027973;28;20574;-47
2021/11/23 06:51:55;;;;;;;7.90;5.93;;;6.10;52.70;;;;;;5026733;28;20451;-47
2021/11/23 06:54:20;;;;;;;6.67;6.07;;;6.00;53.30;;;;;;5027497;28;20229;-47
2021/11/23 06:56:49;;;;;;;9.57;6.33;;;6.00;53.70;;;;;;5030287;28;20478;-47
2021/11/23 06:59:14;;;;;;;11.00;7.50;;;5.90;54.20;;;;;;5028153;28;20224;-47
2021/11/23 07:01:40;;;;;;;8.30;7.20;;;5.80;54.80;;;;;;5031549;28;20816;-47
2021/11/23 07:04:06;;;;;;;10.20;7.07;;;5.90;54.90;;;;;;5029646;28;20307;-48
2021/11/23 07:06:31;;;;;;;8.77;6.57;;;5.90;54.50;;;;;;5031245;28;20201;-47
2021/11/23 07:08:57;;;;;;;8.40;7.40;;;6.00;54.50;;;;;;5029303;28;20193;-47
2021/11/23 07:11:22;;;;;;;8.77;7.20;;;6.40;54.80;;;;;;5030838;28;20607;-47
2021/11/23 07:13:48;;;;;;;10.27;7.60;;;7.30;53.70;;;;;;5031886;28;20227;-47
2021/11/23 07:16:14;;;;;;;7.73;6.67;;;8.30;51.10;;;;;;5030911;28;20189;-46
2021/11/23 07:18:39;;;;;;;8.17;7.40;;;9.30;48.70;;;;;;5032288;28;20586;-45
2021/11/23 07:21:05;;;;;;;17.07;6.40;;;10.20;45.50;;;;;;5031874;28;20189;-45
2021/11/23 07:23:31;;;;;;;8.30;6.83;;;11.00;43.30;;;;;;5028715;28;20225;-45
2021/11/23 07:25:56;;;;;;;9.07;8.20;;;11.60;41.80;;;;;;5028048;28;20255;-47
2021/11/23 07:28:22;;;;;;;13.57;10.30;;;11.50;41.30;;;;;;5029268;28;20201;-45
2021/11/23 07:30:48;;;;;;;13.83;10.13;;;11.70;41.40;;;;;;5029269;28;20309;-45
2021/11/23 07:33:14;;;;;;;11.70;10.23;;;12.10;40.90;;;;;;5031910;28;20560;-45
2021/11/23 07:35:39;;;;;;;13.17;9.80;;;12.30;40.80;;;;;;5030006;28;20207;-46
2021/11/23 07:38:05;;;;;;;13.53;9.60;;;12.50;39.70;;;;;;5041243;28;20456;-46
2021/11/23 07:40:31;;;;;;;12.20;9.13;;;12.60;39.20;;;;;;5031194;28;20241;-47
2021/11/23 07:42:57;;;;;;;9.13;8.20;;;12.60;39.60;;;;;;5021638;28;20257;-46
2021/11/23 07:45:24;;;;;;;10.23;8.20;;;12.70;39.60;;;;;;5026874;28;20464;-46
2021/11/23 07:47:50;;;;;;;10.37;8.80;;;12.80;39.30;;;;;;5026576;28;20716;-46
2021/11/23 07:50:16;;;;;;;25.97;23.77;;;12.80;39.30;;;;;;5030908;28;20434;-46
2021/11/23 07:52:42;;;;;;;20.50;18.60;;;12.80;39.10;;;;;;5031045;28;20444;-45
2021/11/23 07:55:08;;;;;;;17.80;15.93;;;12.50;39.50;;;;;;5031783;28;20204;-47
2021/11/23 07:57:34;;;;;;;15.43;13.80;;;12.10;40.20;;;;;;5032048;28;20437;-46
2021/11/23 08:00:00;;;;;;;13.47;12.10;;;11.60;41.20;;;;;;5030527;28;20272;-49
2021/11/23 08:02:26;;;;;;;10.37;9.37;;;11.20;42.00;;;;;;5029400;28;21133;-47
2021/11/23 08:04:51;;;;;;;10.97;9.87;;;10.70;43.00;;;;;;5030549;28;20201;-48
2021/11/23 08:07:17;;;;;;;10.80;9.70;;;10.10;44.20;;;;;;5031935;28;20247;-48
2021/11/23 08:09:44;;;;;;;15.47;8.10;;;9.60;46.50;;;;;;5031201;28;20194;-49
2021/11/23 08:12:10;;;;;;;10.83;8.43;;;9.20;47.80;;;;;;5032117;28;20285;-48
2021/11/23 08:14:35;;;;;;;13.83;7.20;;;8.90;48.60;;;;;;5030927;28;20530;-50
2021/11/23 08:17:01;;;;;;;13.03;8.00;;;8.70;49.20;;;;;;5031064;28;20487;-48
2021/11/23 08:19:27;;;;;;;15.37;9.23;;;8.50;50.00;;;;;;5030360;28;20196;-51
2021/11/23 08:21:52;;;;;;;16.70;7.90;;;8.40;50.80;;;;;;5031464;28;20205;-47
2021/11/23 08:24:18;;;;;;;8.87;7.97;;;8.30;51.20;;;;;;5029317;28;20200;-48
2021/11/23 08:26:43;;;;;;;11.67;8.70;;;8.30;51.40;;;;;;5030739;28;20194;-50
2021/11/23 08:29:09;;;;;;;17.33;9.53;;;8.30;51.80;;;;;;5031090;28;20193;-48
2021/11/23 08:31:35;;;;;;;11.00;9.90;;;8.10;51.90;;;;;;5031479;28;20197;-49
2021/11/23 08:34:04;;;;;;;13.60;9.50;;;8.10;52.00;;;;;;5030100;28;20660;-48
2021/11/23 08:36:33;;;;;;;12.87;9.60;;;8.10;52.10;;;;;;5019456;28;20439;-49
2021/11/23 08:39:00;;;;;;;11.47;9.60;;;8.10;52.00;;;;;;5030579;28;20436;-48
2021/11/23 08:41:26;;;;;;;12.17;9.80;;;8.10;52.60;;;;;;5022044;28;20488;-48
2021/11/23 08:43:52;;;;;;;12.23;8.90;;;8.10;52.50;;;;;;5031167;28;20488;-48
2021/11/23 08:46:18;;;;;;;9.73;8.73;;;8.10;52.50;;;;;;5033900;28;20533;-47
2021/11/23 08:48:43;;;;;;;13.53;11.10;;;8.10;52.40;;;;;;5029147;28;20417;-48
2021/11/23 08:51:13;;;;;;;10.70;8.60;;;8.20;52.80;;;;;;5029412;28;20664;-46
2021/11/23 08:53:38;;;;;;;9.40;8.10;;;8.20;52.80;;;;;;5034431;28;20197;-46
2021/11/23 08:56:05;;;;;;;9.90;8.70;;;8.10;52.50;;;;;;5030312;28;20493;-46
2021/11/23 08:58:31;;;;;;;9.17;8.27;;;8.20;52.70;;;;;;5030248;28;20384;-46
2021/11/23 09:00:58;;;;;;;10.37;9.17;;;7.80;53.70;;;;;;5029441;28;20432;-47
2021/11/23 09:03:24;;;;;;;10.00;9.00;;;7.80;54.40;;;;;;5024293;28;20280;-48
2021/11/23 09:05:52;;;;;;;11.40;8.83;;;8.00;54.40;;;;;;5027619;28;20468;-48
2021/11/23 09:08:17;;;;;;;11.23;8.70;;;8.00;53.80;;;;;;5029113;28;20432;-47
2021/11/23 09:10:43;;;;;;;9.73;8.83;;;8.20;54.00;;;;;;5033971;28;20442;-48
2021/11/23 09:13:10;;;;;;;9.93;8.93;;;8.40;54.00;;;;;;5032090;28;20284;-50
2021/11/23 09:15:37;;;;;;;12.63;8.63;;;8.60;53.60;;;;;;5030990;28;20791;-49
2021/11/23 09:18:05;;;;;;;8.53;7.60;;;8.80;53.00;;;;;;5028613;28;20476;-52
2021/11/23 09:20:34;;;;;;;8.53;7.63;;;9.00;52.80;;;;;;5029271;28;20432;-47
2021/11/23 09:23:10;;;;;;;9.47;8.47;;;9.20;52.30;;;;;;5031160;28;20519;-47
2021/11/23 09:25:39;;;;;;;16.50;8.10;;;9.50;51.70;;;;;;5029498;28;20442;-47
2021/11/23 09:28:05;;;;;;;10.13;8.20;;;9.80;51.40;;;;;;5029048;28;20438;-51
2021/11/23 09:30:34;;;;;;;8.13;7.33;;;10.00;50.00;;;;;;5032258;28;20443;-49
2021/11/23 09:33:01;;;;;;;8.67;7.87;;;10.20;49.20;;;;;;5020953;28;20444;-47
2021/11/23 09:35:27;;;;;;;9.53;8.63;;;10.50;48.80;;;;;;5031098;28;20443;-48
2021/11/23 09:37:55;;;;;;;9.40;7.43;;;10.70;48.40;;;;;;5037159;28;20848;-48
2021/11/23 09:40:22;;;;;;;11.80;8.90;;;10.90;48.00;;;;;;5030328;28;20435;-45
2021/11/23 09:42:49;;;;;;;8.30;7.50;;;11.10;47.70;;;;;;5029471;28;20483;-49
2021/11/23 09:45:16;;;;;;;8.60;7.73;;;11.30;47.00;;;;;;5029040;28;20437;-50
2021/11/23 09:47:42;;;;;;;8.60;7.80;;;11.50;46.40;;;;;;5033842;28;20421;-46
2021/11/23 09:50:09;;;;;;;9.30;8.40;;;11.70;45.70;;;;;;5031544;28;20654;-49
2021/11/23 09:52:36;;;;;;;9.57;8.50;;;11.90;45.10;;;;;;5028514;28;20515;-46
2021/11/23 09:55:03;;;;;;;8.40;7.50;;;11.90;45.60;;;;;;5030230;28;20486;-49
2021/11/23 09:57:28;;;;;;;9.80;7.50;;;12.00;45.20;;;;;;5024643;28;20797;-45
2021/11/23 09:59:54;;;;;;;8.50;7.30;;;12.10;45.50;;;;;;5030171;28;20475;-47
2021/11/23 10:02:31;;;;;;;9.97;7.47;;;12.20;44.70;;;;;;5027012;28;20221;-48
2021/11/23 10:05:10;;;;;;;9.23;8.33;;;12.10;44.20;;;;;;5027858;28;20204;-46
2021/11/23 10:07:41;;;;;;;9.80;7.10;;;12.30;44.80;;;;;;5024386;28;20494;-45
2021/11/23 10:10:12;;;;;;;8.50;7.70;;;12.30;44.70;;;;;;5028300;28;20448;-47
2021/11/23 10:12:38;;;;;;;8.27;7.47;;;12.50;43.90;;;;;;5027852;28;20506;-45
2021/11/23 10:15:13;;;;;;;10.33;8.00;;;12.40;44.30;;;;;;5030392;28;20445;-47
2021/11/23 10:17:46;;;;;;;8.43;7.63;;;12.30;44.70;;;;;;5025574;28;20700;-46
2021/11/23 10:20:40;;;;;;;8.30;7.50;;;12.50;44.70;;;;;;5030031;28;20447;-48
2021/11/23 10:23:13;;;;;;;8.63;7.83;;;12.60;43.90;;;;;;5029638;28;20959;-49
2021/11/23 10:25:39;;;;;;;9.47;6.70;;;12.60;43.80;;;;;;5028948;28;20436;-47
2021/11/23 10:28:05;;;;;;;7.70;7.00;;;12.50;44.20;;;;;;5027728;28;20489;-49
2021/11/23 10:30:32;;;;;;;7.63;6.97;;;12.30;43.80;;;;;;5032005;28;20446;-45
2021/11/23 10:32:57;;;;;;;7.93;7.20;;;12.40;44.20;;;;;;5033118;28;20432;-48
2021/11/23 10:35:25;;;;;;;8.83;6.87;;;12.50;43.90;;;;;;5034630;28;20458;-50
2021/11/23 10:37:52;;;;;;;7.63;6.90;;;12.70;43.70;;;;;;5032634;28;20196;-49
2021/11/23 10:40:27;;;;;;;10.93;8.13;;;12.90;43.50;;;;;;5032426;28;21755;-50
2021/11/23 10:42:56;;;;;;;7.90;6.90;;;12.90;43.30;;;;;;5032298;28;20986;-45
2021/11/23 10:45:21;;;;;;;8.47;7.67;;;13.00;42.50;;;;;;5033262;28;20522;-45
2021/11/23 10:47:49;;;;;;;7.47;6.77;;;13.00;43.10;;;;;;5030834;28;21043;-48
2021/11/23 10:50:18;;;;;;;8.27;7.47;;;12.90;43.30;;;;;;5031957;28;20229;-47
2021/11/23 10:52:47;;;;;;;6.90;6.30;;;13.00;43.90;;;;;;5032648;28;20455;-48
2021/11/23 10:55:35;;;;;;;9.20;7.23;;;13.30;43.10;;;;;;5032627;28;20440;-45
2021/11/23 10:58:03;;;;;;;7.10;6.27;;;13.80;41.60;;;;;;5024153;28;20451;-49
2021/11/23 11:00:31;;;;;;;8.00;7.20;;;13.80;41.60;;;;;;5033054;28;20443;-49
2021/11/23 11:03:01;;;;;;;8.13;7.33;;;13.90;41.60;;;;;;5029412;28;20483;-50
2021/11/23 11:05:28;;;;;;;7.33;6.50;;;14.00;41.20;;;;;;5033427;28;20574;-46
2021/11/23 11:07:56;;;;;;;8.83;7.30;;;14.00;41.50;;;;;;5032967;28;20424;-50
2021/11/23 11:10:22;;;;;;;7.10;6.50;;;14.00;40.60;;;;;;5032468;28;20444;-49
2021/11/23 11:12:48;;;;;;;7.40;6.47;;;13.90;41.30;;;;;;5031982;28;20450;-48
2021/11/23 11:15:16;;;;;;;7.80;6.33;;;14.00;41.60;;;;;;5031426;28;20193;-52
2021/11/23 11:17:44;;;;;;;9.10;6.20;;;14.10;41.80;;;;;;5030095;28;21910;-46
2021/11/23 11:20:11;;;;;;;7.77;6.70;;;14.00;41.90;;;;;;5034003;28;20436;-48
2021/11/23 11:22:53;;;;;;;6.73;6.03;;;14.00;41.50;;;;;;5025958;28;20486;-46
2021/11/23 11:27:48;;;;;;;7.20;6.60;;;13.80;41.10;;;;;;5035593;28;22399;-49
2021/11/23 11:30:35;;;;;;;7.50;6.73;;;13.50;41.40;;;;;;5032091;28;20205;-45
2021/11/23 11:33:04;;;;;;;7.30;6.63;;;13.50;42.30;;;;;;5032390;28;20440;-47
2021/11/23 11:35:39;;;;;;;8.87;6.83;;;13.50;41.80;;;;;;5032285;28;20517;-45
2021/11/23 11:38:27;;;;;;;8.40;6.73;;;13.50;42.00;;;;;;5033809;28;20500;-48
2021/11/23 11:40:55;;;;;;;7.70;5.83;;;13.50;41.90;;;;;;5027519;28;20490;-46
2021/11/23 11:43:20;;;;;;;6.23;5.63;;;13.60;42.10;;;;;;5032375;28;20482;-50
2021/11/23 11:45:51;;;;;;;6.63;5.57;;;13.50;41.10;;;;;;5033984;28;20442;-46
2021/11/23 11:48:36;;;;;;;6.10;5.60;;;13.50;41.60;;;;;;5030603;28;20522;-46
2021/11/23 11:51:15;;;;;;;6.10;5.60;;;13.60;41.00;;;;;;5032600;28;20509;-50
2021/11/23 11:53:46;;;;;;;6.73;6.20;;;13.80;41.00;;;;;;5032513;28;20997;-47
2021/11/23 11:56:14;;;;;;;5.60;5.20;;;13.90;40.60;;;;;;5034640;28;20497;-47
2021/11/23 11:58:56;;;;;;;7.00;5.93;;;14.00;40.90;;;;;;5028230;28;20448;-49
2021/11/23 12:01:23;;;;;;;5.60;5.13;;;14.20;40.40;;;;;;5033144;28;20802;-48
2021/11/23 12:04:14;;;;;;;7.03;5.10;;;14.30;39.80;;;;;;5033035;28;20502;-46
2021/11/23 12:07:08;;;;;;;6.63;6.03;;;14.40;39.50;;;;;;5030771;28;20993;-46
2021/11/23 12:09:41;;;;;;;6.43;5.60;;;14.30;39.20;;;;;;5033583;28;20443;-48
2021/11/23 12:12:09;;;;;;;6.20;5.60;;;14.30;39.30;;;;;;5021260;28;20618;-46
2021/11/23 12:14:49;;;;;;;5.90;5.40;;;14.10;38.70;;;;;;5030483;28;22178;-49
2021/11/23 12:17:33;;;;;;;6.90;5.60;;;14.00;39.40;;;;;;5028131;28;20533;-45
2021/11/23 12:20:11;;;;;;;6.10;5.50;;;13.90;39.80;;;;;;5023540;28;20989;-47
2021/11/23 12:22:42;;;;;;;6.20;5.70;;;14.20;39.70;;;;;;5031555;28;20492;-50
2021/11/23 12:25:12;;;;;;;5.87;5.37;;;14.30;39.40;;;;;;5032910;28;20439;-47
2021/11/23 12:27:42;;;;;;;5.20;4.70;;;14.40;39.00;;;;;;5033099;28;20440;-48
2021/11/23 12:30:08;;;;;;;4.30;3.93;;;14.60;39.00;;;;;;5033681;28;20478;-49
2021/11/23 12:32:37;;;;;;;5.43;4.53;;;14.70;38.30;;;;;;5030635;28;21006;-48
2021/11/23 12:35:05;;;;;;;4.93;4.53;;;14.70;38.60;;;;;;5032447;28;20435;-49
2021/11/23 12:37:32;;;;;;;5.80;4.37;;;14.50;38.10;;;;;;5033154;28;20523;-51
2021/11/23 12:40:01;;;;;;;4.70;4.30;;;14.40;39.00;;;;;;5036541;28;20432;-49
2021/11/23 12:42:26;;;;;;;10.87;4.50;;;14.60;38.80;;;;;;5031815;28;20493;-46
2021/11/23 12:44:52;;;;;;;3.30;3.00;;;15.00;40.40;;;;;;5028471;28;20562;-49
2021/11/23 12:47:21;;;;;;;7.03;3.97;;;15.30;38.10;;;;;;5024428;28;20197;-50
2021/11/23 12:50:01;;;;;;;3.27;2.90;;;15.60;37.70;;;;;;5028510;28;20284;-45
2021/11/23 12:52:30;;;;;;;3.17;2.70;;;16.00;38.00;;;;;;5026747;28;20822;-47
2021/11/23 12:54:56;;;;;;;3.63;2.30;;;16.30;39.40;;;;;;5039047;28;20513;-47
2021/11/23 12:57:24;;;;;;;4.97;2.97;;;16.80;38.90;;;;;;5021709;28;20444;-47